logo
Rechercher aéroport 
image banner adimage banner adimage banner ad
image banner ad

LTCD - Erzincan Yildirim Akbulut

Situé à Erzincan, Turkey

ICAO - LTCD, IATA - ERC

Données fournies par Airmate  

Information générale

Coordonnées: N39°42'47" E39°31'14"
Élévation : 3791 feet MSL.
Variation magnétique : 6.0° East
Voir autres Aéroports à Erzincan

Données opérationnelles

Special qualification required
Heure actuelle UTC:
Heure actuelle locale:
Météo
METAR: LTCD 221350Z 28004KT 240V300 9999 FEW045 22/01 Q1018 NOSIG
TAF: TAF LTCD 221340Z 2215/2224 27008KT 9999 SCT045
Voir NOTAMs / SUP AIP / TFR affectant cet aéroport [VIEW]
Fréquences de communication: [VIEW]

Pistes:

Identifiant RWYQFULongueur (ft)Largeur (ft)SurfaceLDA (ft)
10111°9843148CONC+ASPH9843
28291°9843148CONC+ASPH9843

Coordonnées de l'aéroport

Adresse: Erzincan Turkey

Vue satellite de LTCD